createdAt,value
2019-05-15T00:03:13.701Z,12.70
2019-05-15T00:08:18.334Z,12.70
2019-05-15T00:13:18.945Z,12.60
2019-05-15T00:18:21.550Z,12.50
2019-05-15T00:23:24.084Z,12.50
2019-05-15T00:28:28.059Z,12.50
2019-05-15T00:33:29.313Z,12.50
2019-05-15T00:38:31.817Z,12.50
2019-05-15T00:43:34.377Z,12.40
2019-05-15T00:48:39.486Z,12.40
2019-05-15T00:53:39.606Z,12.20
2019-05-15T00:58:42.160Z,12.30
2019-05-15T01:03:44.789Z,12.30
2019-05-15T01:08:48.299Z,12.30
2019-05-15T01:13:49.957Z,12.20
2019-05-15T01:18:52.683Z,12.20
2019-05-15T01:23:55.281Z,12.30
2019-05-15T01:28:58.441Z,12.10
2019-05-15T01:34:00.417Z,12.10
2019-05-15T01:39:04.911Z,12.10
2019-05-15T01:44:08.812Z,12.10
2019-05-15T01:49:10.069Z,12.10
2019-05-15T01:54:12.579Z,12.10
2019-05-15T01:59:15.138Z,12.00
2019-05-15T02:04:19.679Z,12.00
2019-05-15T02:09:20.383Z,12.00
2019-05-15T02:14:22.955Z,11.80
2019-05-15T02:19:25.549Z,11.80
2019-05-15T02:24:30.298Z,11.90
2019-05-15T02:29:32.841Z,11.80
2019-05-15T02:34:35.417Z,11.80
2019-05-15T02:39:38.926Z,11.70
2019-05-15T02:44:40.513Z,11.70
2019-05-15T02:49:43.009Z,11.80
2019-05-15T02:54:45.548Z,11.80
2019-05-15T02:59:49.767Z,11.70
2019-05-15T03:04:53.462Z,11.70
2019-05-15T03:09:56.033Z,11.60
2019-05-15T03:14:59.833Z,11.70
2019-05-15T03:20:01.247Z,11.70
2019-05-15T03:25:04.759Z,11.70
2019-05-15T03:30:13.831Z,11.70
2019-05-15T03:35:14.357Z,11.60
2019-05-15T03:40:12.994Z,11.60
2019-05-15T03:45:19.045Z,11.50
2019-05-15T03:50:19.427Z,11.50
2019-05-15T03:55:20.824Z,11.60
2019-05-15T04:00:23.452Z,11.60
2019-05-15T04:05:29.150Z,11.70
2019-05-15T04:10:28.976Z,11.80
2019-05-15T04:15:31.252Z,11.80
2019-05-15T04:20:33.907Z,11.60
2019-05-15T04:25:39.162Z,11.60
2019-05-15T04:30:39.526Z,11.50
2019-05-15T04:35:41.914Z,11.40
2019-05-15T04:40:44.516Z,11.30
2019-05-15T04:45:49.757Z,11.60
2019-05-15T04:50:49.979Z,11.90
2019-05-15T04:55:52.395Z,12.10
2019-05-15T05:00:55.066Z,12.10
2019-05-15T05:05:59.119Z,11.60
2019-05-15T05:11:01.022Z,11.90
2019-05-15T05:16:03.588Z,12.10
2019-05-15T05:21:07.752Z,12.10
2019-05-15T05:26:11.109Z,12.20
2019-05-15T05:31:14.098Z,12.20
2019-05-15T05:36:14.067Z,12.20
2019-05-15T05:41:18.839Z,12.20
2019-05-15T05:46:19.229Z,12.30
2019-05-15T05:51:21.859Z,12.40
2019-05-15T05:56:24.406Z,12.30
2019-05-15T06:01:28.251Z,12.20
2019-05-15T06:06:29.605Z,12.40
2019-05-15T06:11:32.251Z,12.30
2019-05-15T06:16:34.785Z,12.50
2019-05-15T06:21:39.233Z,12.50
2019-05-15T06:26:39.976Z,12.60
2019-05-15T06:31:42.645Z,12.80
2019-05-15T06:36:45.214Z,12.80
2019-05-15T06:41:48.383Z,12.90
2019-05-15T06:46:50.476Z,13.00
2019-05-15T06:51:52.971Z,13.00
2019-05-15T06:56:58.175Z,12.60
2019-05-15T07:01:59.388Z,12.70
2019-05-15T07:07:00.802Z,13.10
2019-05-15T07:12:03.401Z,13.20
2019-05-15T07:17:08.864Z,13.30
2019-05-15T07:22:09.395Z,13.50
2019-05-15T07:27:11.240Z,13.60
2019-05-15T07:32:13.785Z,13.70
2019-05-15T07:37:18.850Z,14.10
2019-05-15T07:42:19.050Z,14.20
2019-05-15T07:47:21.701Z,14.30
2019-05-15T07:52:24.191Z,14.50
2019-05-15T07:57:29.708Z,14.40
2019-05-15T08:02:29.338Z,13.70
2019-05-15T08:07:32.935Z,14.00
2019-05-15T08:12:35.533Z,14.40
2019-05-15T08:17:59.200Z,14.80
2019-05-15T08:22:40.741Z,14.70
2019-05-15T08:27:43.289Z,14.90
2019-05-15T08:32:49.073Z,15.00
2019-05-15T08:37:49.272Z,14.70
2019-05-15T08:42:56.668Z,15.00
2019-05-15T08:47:54.671Z,15.00
2019-05-15T08:52:57.898Z,15.20
2019-05-15T08:58:07.386Z,15.00
2019-05-15T09:03:03.005Z,15.10
2019-05-15T09:08:05.716Z,15.30
2019-05-15T09:13:09.571Z,14.90
2019-05-15T09:18:15.952Z,15.00
2019-05-15T09:23:14.413Z,14.80
2019-05-15T09:28:18.894Z,14.80
2019-05-15T09:33:20.256Z,15.20
2019-05-15T09:38:22.235Z,15.10
2019-05-15T09:43:24.837Z,15.20
2019-05-15T09:48:28.657Z,15.40
2019-05-15T09:53:30.051Z,15.20
2019-05-15T09:58:35.101Z,14.70
2019-05-15T10:03:39.609Z,15.00
2019-05-15T10:08:40.293Z,15.50
2019-05-15T10:13:42.958Z,15.70
2019-05-15T10:18:50.448Z,15.80
2019-05-15T10:23:49.377Z,15.60
2019-05-15T10:28:53.774Z,16.10
2019-05-15T10:33:58.280Z,16.50
2019-05-15T10:38:59.372Z,16.90
2019-05-15T10:44:01.967Z,17.30
2019-05-15T10:49:04.562Z,18.40
2019-05-15T10:54:08.598Z,18.30
2019-05-15T10:59:09.849Z,18.70
2019-05-15T11:04:12.424Z,18.90
2019-05-15T11:09:15.129Z,19.10
2019-05-15T11:14:18.428Z,19.20
2019-05-15T11:19:20.355Z,17.90
2019-05-15T11:24:23.059Z,18.90
2019-05-15T11:29:26.043Z,19.40
2019-05-15T11:34:29.159Z,19.20
2019-05-15T11:39:31.158Z,18.90
2019-05-15T11:44:33.764Z,18.70
2019-05-15T11:49:38.370Z,18.60
2019-05-15T11:54:39.044Z,18.40
2019-05-15T11:59:45.361Z,18.30
2019-05-15T12:04:45.335Z,18.30
2019-05-15T12:09:47.909Z,18.60
2019-05-15T12:14:50.427Z,18.50
2019-05-15T12:19:55.310Z,18.40
2019-05-15T12:24:55.577Z,18.40
2019-05-15T12:29:59.994Z,18.40
2019-05-15T12:35:00.841Z,18.50
2019-05-15T13:00:14.495Z,17.60
2019-05-15T13:05:19.254Z,17.70
2019-05-15T13:10:19.761Z,17.40
2019-05-15T13:15:22.373Z,17.10
2019-05-15T13:20:24.941Z,16.90
2019-05-15T13:25:28.089Z,16.80
2019-05-15T13:30:30.352Z,17.20
2019-05-15T13:35:32.874Z,16.90
2019-05-15T13:40:38.939Z,16.80
2019-05-15T13:45:38.607Z,16.70
2019-05-15T13:50:40.928Z,16.60
2019-05-15T13:55:43.521Z,16.80
2019-05-15T14:00:48.970Z,17.20
2019-05-15T14:05:49.729Z,17.20
2019-05-15T14:10:51.380Z,17.40
2019-05-15T14:15:54.015Z,17.60
2019-05-15T14:20:58.480Z,17.30
2019-05-15T14:26:13.079Z,16.70
2019-05-15T14:31:03.076Z,16.20
2019-05-15T14:36:12.836Z,16.60
2019-05-15T14:41:15.459Z,16.50
2019-05-15T14:46:18.568Z,16.50
2019-05-15T14:51:20.759Z,16.30
2019-05-15T14:56:23.337Z,16.20
2019-05-15T15:01:25.905Z,16.30
2019-05-15T15:06:28.545Z,15.80
2019-05-15T15:11:31.183Z,15.40
2019-05-15T15:16:33.788Z,15.60
2019-05-15T15:21:38.501Z,15.50
2019-05-15T15:26:39.404Z,15.10
2019-05-15T15:31:41.612Z,15.00
2019-05-15T15:36:44.190Z,15.20
2019-05-15T15:41:48.563Z,15.40
2019-05-15T15:46:49.308Z,15.70
2019-05-15T15:51:51.871Z,15.70
2019-05-15T15:56:54.523Z,15.70
2019-05-15T16:01:59.689Z,15.70
2019-05-15T16:06:59.781Z,15.30
2019-05-15T16:12:02.384Z,15.60
2019-05-15T16:17:05.070Z,15.80
2019-05-15T16:22:08.781Z,15.90
2019-05-15T16:27:10.315Z,15.60
2019-05-15T16:32:12.843Z,15.70
2019-05-15T16:37:15.471Z,15.60
2019-05-15T16:42:18.172Z,15.40
2019-05-15T16:47:20.701Z,14.90
2019-05-15T16:52:23.260Z,14.70
2019-05-15T16:57:28.030Z,14.30
2019-05-15T17:02:28.478Z,14.20
2019-05-15T17:07:31.096Z,14.50
2019-05-15T17:12:33.669Z,14.60
2019-05-15T17:17:38.385Z,14.90
2019-05-15T17:22:38.912Z,14.20
2019-05-15T17:27:41.515Z,14.60
2019-05-15T17:32:44.377Z,14.80
2019-05-15T17:37:48.732Z,14.80
2019-05-15T17:42:49.577Z,15.00
2019-05-15T17:47:52.172Z,15.20
2019-05-15T17:52:54.790Z,15.10
2019-05-15T17:58:00.699Z,14.90
2019-05-15T18:03:00.032Z,14.70
2019-05-15T18:08:02.606Z,14.20
2019-05-15T18:13:05.296Z,14.10
2019-05-15T18:18:09.454Z,14.00
2019-05-15T18:23:10.506Z,14.00
2019-05-15T18:28:13.111Z,13.90
2019-05-15T18:33:15.807Z,14.30
2019-05-15T18:38:19.099Z,14.30
2019-05-15T18:43:21.125Z,14.30
2019-05-15T18:48:23.701Z,14.50
2019-05-15T18:53:28.257Z,14.40
2019-05-15T18:58:28.904Z,14.50
2019-05-15T19:03:31.516Z,14.60
2019-05-15T19:08:34.915Z,14.30
2019-05-15T19:13:38.963Z,14.40
2019-05-15T19:18:40.130Z,14.40
2019-05-15T19:23:42.739Z,14.00
2019-05-15T19:28:45.314Z,14.10
2019-05-15T19:33:47.922Z,14.30
2019-05-15T19:38:50.575Z,14.30
2019-05-15T19:43:53.225Z,14.30
2019-05-15T19:48:57.998Z,14.20
2019-05-15T19:53:58.890Z,14.30
2019-05-15T19:59:01.229Z,14.10
2019-05-15T20:04:03.866Z,14.10
2019-05-15T20:09:07.749Z,14.20
2019-05-15T20:14:09.752Z,14.30
2019-05-15T20:19:12.513Z,14.20
2019-05-15T20:24:15.129Z,14.30
2019-05-15T20:29:18.193Z,14.30
2019-05-15T20:34:20.989Z,14.20
2019-05-15T20:39:23.589Z,13.90
2019-05-15T20:44:26.152Z,13.90
2019-05-15T20:49:28.771Z,14.00
2019-05-15T20:54:31.379Z,13.80
2019-05-15T20:59:33.876Z,13.30
2019-05-15T21:04:38.466Z,13.00
2019-05-15T21:09:39.644Z,12.80
2019-05-15T21:14:41.647Z,12.80
2019-05-15T21:19:44.251Z,13.00
2019-05-15T21:24:46.850Z,13.20
2019-05-15T21:29:49.808Z,13.10
2019-05-15T21:34:52.751Z,12.90
2019-05-15T21:39:55.297Z,12.40
2019-05-15T21:44:58.237Z,12.40
2019-05-15T21:50:00.520Z,12.50
2019-05-15T21:55:03.319Z,12.00
2019-05-15T22:00:08.754Z,11.80
2019-05-15T22:05:09.560Z,12.00
2019-05-15T22:10:19.308Z,11.90
2019-05-15T22:15:20.635Z,11.80
2019-05-15T22:20:23.295Z,11.90
2019-05-15T22:25:27.938Z,12.20
2019-05-15T22:30:30.413Z,12.50
2019-05-15T22:35:31.252Z,12.40
2019-05-15T22:40:33.827Z,12.20
2019-05-15T22:45:37.699Z,12.00
2019-05-15T22:50:39.029Z,12.00
2019-05-15T22:55:41.609Z,12.10
2019-05-15T23:00:44.287Z,12.30
2019-05-15T23:05:46.881Z,12.40
2019-05-15T23:10:49.470Z,12.60
2019-05-15T23:15:52.031Z,12.80
2019-05-15T23:20:54.589Z,12.70
2019-05-15T23:25:57.802Z,12.80
2019-05-15T23:30:59.751Z,12.90
2019-05-15T23:36:02.525Z,13.00
2019-05-15T23:41:05.077Z,13.00
2019-05-15T23:46:08.036Z,12.90
2019-05-15T23:51:10.227Z,12.90
2019-05-15T23:56:12.809Z,13.00
